createdAt,value
2022-11-12T00:01:14.627Z,98.91
2022-11-12T00:11:14.969Z,99.01
2022-11-12T00:21:14.985Z,98.75
2022-11-12T00:31:16.353Z,98.91
2022-11-12T00:41:15.380Z,99.11
2022-11-12T00:51:15.702Z,99.07
2022-11-12T01:01:18.116Z,98.19
2022-11-12T01:11:16.087Z,97.72
2022-11-12T01:21:16.103Z,97.82
2022-11-12T01:31:16.441Z,98.13
2022-11-12T01:41:16.469Z,98.65
2022-11-12T01:51:16.822Z,98.85
2022-11-12T02:01:16.889Z,99.06
2022-11-12T02:11:17.092Z,99.21
2022-11-12T02:21:17.130Z,99.88
2022-11-12T02:31:17.442Z,99.78
2022-11-12T02:41:17.625Z,99.68
2022-11-12T02:51:17.836Z,99.88
2022-11-12T03:01:17.894Z,99.68
2022-11-12T03:11:18.098Z,99.78
2022-11-12T03:21:18.111Z,99.72
2022-11-12T03:31:18.577Z,99.72
2022-11-12T03:41:18.603Z,99.99
2022-11-12T03:51:19.977Z,99.99
2022-11-12T04:01:19.024Z,99.99
2022-11-12T04:11:19.510Z,99.99
2022-11-12T04:21:19.520Z,99.93
2022-11-12T04:31:19.988Z,99.99
2022-11-12T04:41:20.004Z,99.82
2022-11-12T04:51:20.355Z,99.99
2022-11-12T05:01:20.399Z,99.99
2022-11-12T05:11:20.817Z,99.99
2022-11-12T05:21:20.839Z,99.99
2022-11-12T05:31:21.219Z,99.99
2022-11-12T05:41:21.274Z,99.72
2022-11-12T05:51:21.563Z,99.77
2022-11-12T06:01:21.582Z,99.98
2022-11-12T06:11:21.926Z,99.66
2022-11-12T06:21:21.970Z,99.77
2022-11-12T06:31:22.315Z,99.56
2022-11-12T06:41:22.457Z,99.66
2022-11-12T06:51:22.585Z,99.46
2022-11-12T07:01:22.639Z,99.92
2022-11-12T07:11:22.947Z,99.65
2022-11-12T07:21:22.966Z,99.99
2022-11-12T07:31:23.227Z,99.99
2022-11-12T07:41:23.432Z,99.99
2022-11-12T07:51:23.679Z,99.99
2022-11-12T08:01:23.975Z,99.99
2022-11-12T08:11:24.210Z,99.96
2022-11-12T08:21:24.236Z,99.99
2022-11-12T08:31:24.521Z,99.99
2022-11-12T08:41:28.394Z,89.28
2022-11-12T08:51:24.698Z,94.78
2022-11-12T09:01:24.765Z,95.93
2022-11-12T09:11:25.258Z,99.99
2022-11-12T13:06:59.283Z,93.30
2022-11-12T13:16:59.317Z,91.14
2022-11-12T13:27:00.624Z,91.25
2022-11-12T13:36:59.666Z,91.39
2022-11-12T13:47:00.078Z,92.58
2022-11-12T13:57:00.099Z,91.55
2022-11-12T14:07:01.415Z,92.27
2022-11-12T14:17:00.454Z,91.97
2022-11-12T14:27:00.815Z,92.73
2022-11-12T14:37:00.844Z,92.11
2022-11-12T14:47:01.190Z,92.52
2022-11-12T14:57:01.544Z,92.11
2022-11-12T15:07:03.515Z,92.42
2022-11-12T15:17:01.588Z,92.42
2022-11-12T15:27:01.941Z,92.73
2022-11-12T15:37:02.038Z,92.82
2022-11-12T15:47:02.503Z,93.43
2022-11-12T15:57:02.322Z,93.49
2022-11-12T16:07:02.745Z,94.93
2022-11-12T16:17:02.803Z,92.97
2022-11-12T16:27:06.215Z,92.46
2022-11-12T16:37:03.246Z,93.33
2022-11-12T16:47:03.526Z,93.12
2022-11-12T16:57:03.555Z,93.68
2022-11-12T17:07:03.992Z,94.40
2022-11-12T17:17:04.039Z,94.20
2022-11-12T17:27:05.588Z,94.56
2022-11-12T17:37:04.695Z,94.77
2022-11-12T17:47:06.685Z,94.36
2022-11-12T17:57:04.823Z,94.40
2022-11-12T18:07:05.045Z,95.58
2022-11-12T18:17:05.396Z,95.58
2022-11-12T18:27:05.371Z,96.24
2022-11-12T18:37:05.388Z,97.17
2022-11-12T18:47:05.748Z,97.38
2022-11-12T18:57:06.020Z,97.27
2022-11-12T19:07:06.055Z,97.06
2022-11-12T19:17:06.380Z,97.67
2022-11-12T19:27:06.379Z,98.45
2022-11-12T19:37:31.856Z,98.35
2022-11-12T19:47:07.567Z,98.30
2022-11-12T19:57:06.994Z,97.52
2022-11-12T20:07:07.098Z,97.73
2022-11-12T20:17:07.282Z,97.83
2022-11-12T20:27:07.376Z,97.52
2022-11-12T20:37:10.772Z,97.83
2022-11-12T20:47:07.847Z,97.83
2022-11-12T20:57:08.078Z,98.14
2022-11-12T21:07:08.004Z,97.56
2022-11-12T21:17:08.524Z,98.08
2022-11-12T21:27:08.415Z,98.39
2022-11-12T21:37:08.709Z,98.91
2022-11-12T21:47:08.732Z,98.80
2022-11-12T21:57:09.054Z,98.60
2022-11-12T22:07:09.114Z,98.80
2022-11-12T22:17:09.462Z,99.01
2022-11-12T22:27:09.494Z,99.11
2022-11-12T22:37:09.806Z,99.32
2022-11-12T22:47:09.863Z,99.63
2022-11-12T22:57:10.168Z,99.68
2022-11-12T23:07:10.237Z,99.73
2022-11-12T23:17:11.518Z,99.47
2022-11-12T23:27:10.544Z,99.37
2022-11-12T23:37:10.806Z,99.52
2022-11-12T23:47:11.030Z,99.99
2022-11-12T23:57:11.176Z,99.99
